Ao Nang, Thailand

4:33 AM +07 on May 23, 2017 (GMT +0700)
Ao Nang Weather Station | | Change Station

Elev 177 ft 8.05 °N, 98.84 °E | Updated 1 minute ago

Partly Cloudy
Partly Cloudy
79.7 °F
Feels Like 85 °F
N
0.0
Wind Variable Wind from SSE
Gusts 0.0 mph

Today
High -- | Low -- °F
--% Chance of Precip.
Yesterday
High -- | Low -- °F
Precip. -- in
Pressure 29.77 in
Visibility 5.6 miles
Clouds Scattered Clouds 2000 ft
Heat Index 85 °F
Dew Point 78 °F
Humidity 93%
Rainfall 0.00 in
Snow Depth Not available.
6:05 AM 6:37 PM
Waning Crescent, 12% visible
METAR VTSG 222100Z 00000KT 9000 SCT020 25/24 Q1008
Pressure 29.77 in
Visibility 5.6 miles
Clouds Scattered Clouds 2000 ft
Heat Index 85 °F
Dew Point 78 °F
Humidity 93%
Rainfall 0.00 in
Snow Depth Not available.
6:05 AM 6:37 PM
Waning Crescent, 12% visible
METAR VTSG 222100Z 00000KT 9000 SCT020 25/24 Q1008

Get Severe Weather Alerts

Thanks for signing up!

Be on the lookout for a verification email in your inbox.

You'll start receiving the daily forecast at 6 AM.

×

10-Day Weather Forecast

No radar image for this location.
×

Almanac

Astronomy

May. 23, 2017 Rise Set
Actual Time
Civil Twilight
Nautical Twilight
Astronomical Twilight
Moon
Length of Visible Light
Length of Day
Tomorrow will be .
, % of the Moon is Illuminated

Today's Extremes

Country Highs Country Lows

Community

WunderPhotos

Category 6

Welcome to Category 6. This is the collective home for Weather Underground's featured writeups by Dr. Jeff Masters (right), Bob Henson (left), Chris Burt, and other regular contributors.

Nearby

Air Quality

  Air Quality AQ Index Pollutant
Not available.

Snow Depth

Station Depth Elevation

Earthquake Activity

City Distance Mag. Time & Date
Minimum magnitude displayed is 2.5.

Coastal Water Temperatures

Place Temperature

Stations

Nearby Weather Stations

Station Location Temp. Windchill Dew Point Humidity Wind Precip. Elev Updated Type